Time,TemperatureF,DewpointF,PressureIn,WindDirection,WindDirectionDegrees,WindSpeedMPH,WindSpeedGustMPH,Humidity,HourlyPrecipIn,Conditions,Clouds,dailyrainin,SoftwareType,DateUTC
2013-04-24 00:00:00,62.0,16.6,29.77,SW,221,2.0,2.0,17,0.00,,,0.00,Wunderground v.1.15,2013-04-24 07:00:00,
2013-04-24 00:10:00,61.2,16.0,29.77,SW,221,3.0,10.0,17,0.00,,,0.00,Wunderground v.1.15,2013-04-24 07:10:00,
2013-04-24 00:20:00,61.1,14.5,29.77,SW,221,4.0,4.0,16,0.00,,,0.00,Wunderground v.1.15,2013-04-24 07:20:00,
2013-04-24 00:30:00,61.5,14.8,29.77,NE,48,6.0,6.0,16,0.00,,,0.00,Wunderground v.1.15,2013-04-24 07:30:00,
2013-04-24 00:40:00,61.7,15.0,29.77,ENE,76,6.0,10.0,16,0.00,,,0.00,Wunderground v.1.15,2013-04-24 07:40:00,
2013-04-24 00:49:00,60.7,14.2,29.77,East,87,5.0,10.0,16,0.00,,,0.00,Wunderground v.1.15,2013-04-24 07:49:00,
2013-04-24 01:00:00,61.3,14.7,29.77,East,86,5.0,5.0,16,0.00,,,0.00,Wunderground v.1.15,2013-04-24 08:00:00,
2013-04-24 01:10:00,62.4,14.1,29.77,East,82,5.0,5.0,15,0.00,,,0.00,Wunderground v.1.15,2013-04-24 08:10:00,
2013-04-24 01:20:00,62.0,13.8,29.77,ESE,123,3.0,10.0,15,0.00,,,0.00,Wunderground v.1.15,2013-04-24 08:20:00,
2013-04-24 01:30:00,62.8,14.4,29.77,ESE,123,2.0,10.0,15,0.00,,,0.00,Wunderground v.1.15,2013-04-24 08:30:00,
2013-04-24 01:40:00,63.5,15.0,29.76,ESE,123,3.0,10.0,15,0.00,,,0.00,Wunderground v.1.15,2013-04-24 08:40:00,
2013-04-24 01:50:00,63.8,13.6,29.76,SE,124,4.0,10.0,14,0.00,,,0.00,Wunderground v.1.15,2013-04-24 08:50:00,
2013-04-24 02:00:00,60.6,12.6,29.75,South,178,3.0,3.0,15,0.00,,,0.00,Wunderground v.1.15,2013-04-24 09:00:00,
2013-04-24 02:10:00,62.1,13.8,29.75,South,182,2.0,2.0,15,0.00,,,0.00,Wunderground v.1.15,2013-04-24 09:10:00,
2013-04-24 02:20:00,59.3,13.0,29.75,South,182,0.0,10.0,16,0.00,,,0.00,Wunderground v.1.15,2013-04-24 09:20:00,
2013-04-24 02:30:00,59.0,14.2,29.75,South,182,0.0,10.0,17,0.00,,,0.00,Wunderground v.1.15,2013-04-24 09:30:00,
2013-04-24 02:40:00,59.0,14.2,29.75,South,182,0.0,10.0,17,0.00,,,0.00,Wunderground v.1.15,2013-04-24 09:40:00,
2013-04-24 02:50:00,58.7,13.9,29.74,South,182,0.0,10.0,17,0.00,,,0.00,Wunderground v.1.15,2013-04-24 09:50:00,
2013-04-24 03:00:00,58.1,13.4,29.75,South,182,0.0,10.0,17,0.00,,,0.00,Wunderground v.1.15,2013-04-24 10:00:00,
2013-04-24 03:10:00,57.0,13.8,29.75,South,182,1.0,10.0,18,0.00,,,0.00,Wunderground v.1.15,2013-04-24 10:10:00,
2013-04-24 03:20:00,56.4,13.4,29.74,South,181,4.0,10.0,18,0.00,,,0.00,Wunderground v.1.15,2013-04-24 10:20:00,
2013-04-24 03:30:00,58.5,15.1,29.75,South,180,3.0,10.0,18,0.00,,,0.00,Wunderground v.1.15,2013-04-24 10:30:00,
2013-04-24 03:40:00,58.9,15.4,29.75,South,181,3.0,3.0,18,0.00,,,0.00,Wunderground v.1.15,2013-04-24 10:40:00,
2013-04-24 03:50:00,58.0,13.4,29.75,South,181,0.0,10.0,17,0.00,,,0.00,Wunderground v.1.15,2013-04-24 10:50:00,
2013-04-24 04:00:00,56.9,13.8,29.75,South,181,0.0,10.0,18,0.00,,,0.00,Wunderground v.1.15,2013-04-24 11:00:00,
2013-04-24 04:10:00,58.0,14.7,29.75,South,181,0.0,10.0,18,0.00,,,0.00,Wunderground v.1.15,2013-04-24 11:10:00,
2013-04-24 04:20:00,58.4,15.0,29.75,South,181,2.0,2.0,18,0.00,,,0.00,Wunderground v.1.15,2013-04-24 11:20:00,
2013-04-24 04:29:00,57.7,15.7,29.75,South,180,1.0,10.0,19,0.00,,,0.00,Wunderground v.1.15,2013-04-24 11:29:00,
2013-04-24 04:40:00,57.8,14.5,29.75,South,181,1.0,1.0,18,0.00,,,0.00,Wunderground v.1.15,2013-04-24 11:40:00,
2013-04-24 04:50:00,57.7,15.7,29.75,South,181,0.0,10.0,19,0.00,,,0.00,Wunderground v.1.15,2013-04-24 11:50:00,
2013-04-24 04:59:00,57.5,15.5,29.75,South,181,2.0,10.0,19,0.00,,,0.00,Wunderground v.1.15,2013-04-24 11:59:00,
2013-04-24 05:10:00,56.8,14.9,29.75,South,180,1.0,1.0,19,0.00,,,0.00,Wunderground v.1.15,2013-04-24 12:10:00,
2013-04-24 05:20:00,55.6,15.1,29.75,South,180,0.0,10.0,20,0.00,,,0.00,Wunderground v.1.15,2013-04-24 12:20:00,
2013-04-24 05:29:00,54.9,14.5,29.75,South,180,0.0,10.0,20,0.00,,,0.00,Wunderground v.1.15,2013-04-24 12:29:00,
2013-04-24 05:40:00,54.5,14.2,29.75,South,181,0.0,10.0,20,0.00,,,0.00,Wunderground v.1.15,2013-04-24 12:40:00,
2013-04-24 05:49:00,54.2,13.9,29.75,South,181,1.0,10.0,20,0.00,,,0.00,Wunderground v.1.15,2013-04-24 12:49:00,
2013-04-24 06:00:00,56.9,15.0,29.76,South,180,3.0,3.0,19,0.00,,,0.00,Wunderground v.1.15,2013-04-24 13:00:00,
2013-04-24 06:10:00,55.3,13.7,29.76,South,183,1.0,10.0,19,0.00,,,0.00,Wunderground v.1.15,2013-04-24 13:10:00,
2013-04-24 06:19:00,51.4,12.7,29.77,West,264,4.0,10.0,21,0.00,,,0.00,Wunderground v.1.15,2013-04-24 13:19:00,
2013-04-24 06:30:00,49.5,12.2,29.77,West,264,3.0,3.0,22,0.00,,,0.00,Wunderground v.1.15,2013-04-24 13:30:00,
2013-04-24 06:40:00,50.0,12.6,29.78,West,263,3.0,3.0,22,0.00,,,0.00,Wunderground v.1.15,2013-04-24 13:40:00,
2013-04-24 06:50:00,50.6,13.1,29.78,West,263,2.0,10.0,22,0.00,,,0.00,Wunderground v.1.15,2013-04-24 13:50:00,
2013-04-24 07:00:00,52.2,13.4,29.79,West,263,1.0,1.0,21,0.00,,,0.00,Wunderground v.1.15,2013-04-24 14:00:00,
2013-04-24 07:10:00,53.2,13.1,29.80,West,263,1.0,10.0,20,0.00,,,0.00,Wunderground v.1.15,2013-04-24 14:10:00,
2013-04-24 07:20:00,54.1,13.9,29.80,West,263,3.0,3.0,20,0.00,,,0.00,Wunderground v.1.15,2013-04-24 14:20:00,
2013-04-24 07:30:00,54.3,15.1,29.80,West,264,2.0,10.0,21,0.00,,,0.00,Wunderground v.1.15,2013-04-24 14:30:00,
2013-04-24 07:40:00,54.8,16.6,29.81,West,264,1.0,10.0,22,0.00,,,0.00,Wunderground v.1.15,2013-04-24 14:40:00,
2013-04-24 07:50:00,55.3,17.0,29.81,West,264,1.0,10.0,22,0.00,,,0.00,Wunderground v.1.15,2013-04-24 14:50:00,
2013-04-24 08:00:00,56.1,17.7,29.81,WNW,290,1.0,1.0,22,0.00,,,0.00,Wunderground v.1.15,2013-04-24 15:00:00,
2013-04-24 08:10:00,57.4,17.7,29.81,WNW,290,0.0,10.0,21,0.00,,,0.00,Wunderground v.1.15,2013-04-24 15:10:00,
2013-04-24 08:19:00,57.4,17.7,29.81,NW,313,1.0,1.0,21,0.00,,,0.00,Wunderground v.1.15,2013-04-24 15:19:00,
2013-04-24 08:30:00,59.0,17.9,29.82,NW,313,0.0,10.0,20,0.00,,,0.00,Wunderground v.1.15,2013-04-24 15:30:00,
2013-04-24 08:40:00,59.6,18.4,29.81,NW,313,1.0,10.0,20,0.00,,,0.00,Wunderground v.1.15,2013-04-24 15:40:00,
2013-04-24 08:50:00,61.3,19.8,29.81,NW,313,0.0,10.0,20,0.00,,,0.00,Wunderground v.1.15,2013-04-24 15:50:00,
2013-04-24 09:00:00,62.7,19.8,29.81,NW,313,0.0,10.0,19,0.00,,,0.00,Wunderground v.1.15,2013-04-24 16:00:00,
2013-04-24 09:10:00,64.0,20.9,29.81,NW,313,0.0,10.0,19,0.00,,,0.00,Wunderground v.1.15,2013-04-24 16:10:00,
2013-04-24 09:20:00,64.8,20.2,29.80,WNW,298,1.0,10.0,18,0.00,,,0.00,Wunderground v.1.15,2013-04-24 16:20:00,
2013-04-24 09:30:00,66.1,20.0,29.80,WNW,294,4.0,4.0,17,0.00,,,0.00,Wunderground v.1.15,2013-04-24 16:30:00,
2013-04-24 09:40:00,69.3,21.1,29.80,WNW,296,3.0,3.0,16,0.00,,,0.00,Wunderground v.1.15,2013-04-24 16:40:00,
2013-04-24 09:50:00,74.5,22.1,29.80,NNE,17,10.0,17.0,14,0.00,,,0.00,Wunderground v.1.15,2013-04-24 16:50:00,
2013-04-24 10:00:00,74.1,21.8,29.80,North,5,17.0,17.0,14,0.00,,,0.00,Wunderground v.1.15,2013-04-24 17:00:00,
2013-04-24 10:10:00,74.8,18.7,29.80,ENE,61,16.0,19.0,12,0.00,,,0.00,Wunderground v.1.15,2013-04-24 17:10:00,
2013-04-24 10:19:00,75.5,17.3,29.81,NE,44,18.0,18.0,11,0.00,,,0.00,Wunderground v.1.15,2013-04-24 17:19:00,
2013-04-24 10:30:00,76.5,18.0,29.81,NE,46,17.0,17.0,11,0.00,,,0.00,Wunderground v.1.15,2013-04-24 17:30:00,
2013-04-24 10:40:00,76.3,17.9,29.81,ENE,63,19.0,25.0,11,0.00,,,0.00,Wunderground v.1.15,2013-04-24 17:40:00,
2013-04-24 10:50:00,76.6,15.9,29.81,ENE,61,20.0,20.0,10,0.00,,,0.00,Wunderground v.1.15,2013-04-24 17:50:00,
2013-04-24 11:00:00,77.0,16.2,29.80,NE,49,20.0,20.0,10,0.00,,,0.00,Wunderground v.1.15,2013-04-24 18:00:00,
2013-04-24 11:10:00,76.6,18.1,29.80,ENE,57,20.0,20.0,11,0.00,,,0.00,Wunderground v.1.15,2013-04-24 18:10:00,
2013-04-24 11:20:00,77.3,16.4,29.80,ENE,63,20.0,20.0,10,0.00,,,0.00,Wunderground v.1.15,2013-04-24 18:20:00,
2013-04-24 11:29:00,78.1,17.0,29.80,NE,42,18.0,25.0,10,0.00,,,0.00,Wunderground v.1.15,2013-04-24 18:29:00,
2013-04-24 11:40:00,78.0,19.2,29.79,ENE,59,19.0,19.0,11,0.00,,,0.00,Wunderground v.1.15,2013-04-24 18:40:00,
2013-04-24 11:50:00,78.3,17.2,29.78,ENE,72,18.0,18.0,10,0.00,,,0.00,Wunderground v.1.15,2013-04-24 18:50:00,
2013-04-24 12:00:00,78.3,19.4,29.78,NE,45,19.0,21.0,11,0.00,,,0.00,Wunderground v.1.15,2013-04-24 19:00:00,
2013-04-24 12:10:00,78.8,17.6,29.78,NE,36,16.0,18.0,10,0.00,,,0.00,Wunderground v.1.15,2013-04-24 19:10:00,
2013-04-24 12:20:00,79.2,20.1,29.77,NE,45,18.0,18.0,11,0.00,,,0.00,Wunderground v.1.15,2013-04-24 19:20:00,
2013-04-24 12:30:00,79.1,20.0,29.77,NE,47,17.0,17.0,11,0.00,,,0.00,Wunderground v.1.15,2013-04-24 19:30:00,
2013-04-24 12:40:00,79.9,20.7,29.76,NE,55,16.0,17.0,11,0.00,,,0.00,Wunderground v.1.15,2013-04-24 19:40:00,
2013-04-24 12:50:00,80.0,20.7,29.76,NNE,32,16.0,19.0,11,0.00,,,0.00,Wunderground v.1.15,2013-04-24 19:50:00,
2013-04-24 12:59:00,80.1,20.8,29.75,NE,43,17.0,17.0,11,0.00,,,0.00,Wunderground v.1.15,2013-04-24 19:59:00,
2013-04-24 13:10:00,80.3,21.0,29.75,ENE,69,14.0,18.0,11,0.00,,,0.00,Wunderground v.1.15,2013-04-24 20:10:00,
2013-04-24 13:20:00,80.6,21.2,29.74,NNE,32,14.0,14.0,11,0.00,,,0.00,Wunderground v.1.15,2013-04-24 20:20:00,
2013-04-24 13:29:00,80.7,21.3,29.74,NE,46,16.0,26.0,11,0.00,,,0.00,Wunderground v.1.15,2013-04-24 20:29:00,
2013-04-24 13:40:00,80.3,21.0,29.73,NE,42,18.0,18.0,11,0.00,,,0.00,Wunderground v.1.15,2013-04-24 20:40:00,
2013-04-24 13:50:00,80.7,21.3,29.73,NE,35,15.0,16.0,11,0.00,,,0.00,Wunderground v.1.15,2013-04-24 20:50:00,
2013-04-24 13:59:00,81.8,22.1,29.72,ENE,63,14.0,15.0,11,0.00,,,0.00,Wunderground v.1.15,2013-04-24 20:59:00,
2013-04-24 14:10:00,80.2,20.9,29.72,ENE,64,14.0,14.0,11,0.00,,,0.00,Wunderground v.1.15,2013-04-24 21:10:00,
2013-04-24 14:20:00,80.5,23.2,29.72,NE,55,15.0,15.0,12,0.00,,,0.00,Wunderground v.1.15,2013-04-24 21:20:00,
2013-04-24 14:29:00,80.0,22.8,29.71,NE,34,14.0,16.0,12,0.00,,,0.00,Wunderground v.1.15,2013-04-24 21:29:00,
2013-04-24 14:40:00,81.0,23.6,29.71,ENE,78,13.0,19.0,12,0.00,,,0.00,Wunderground v.1.15,2013-04-24 21:40:00,
2013-04-24 14:50:00,79.7,22.6,29.71,ENE,65,15.0,15.0,12,0.00,,,0.00,Wunderground v.1.15,2013-04-24 21:50:00,
2013-04-24 14:59:00,80.9,23.5,29.71,ENE,76,12.0,13.0,12,0.00,,,0.00,Wunderground v.1.15,2013-04-24 21:59:00,
2013-04-24 15:10:00,80.2,23.0,29.70,ENE,68,16.0,16.0,12,0.00,,,0.00,Wunderground v.1.15,2013-04-24 22:10:00,
2013-04-24 15:20:00,81.0,23.6,29.69,NE,34,12.0,16.0,12,0.00,,,0.00,Wunderground v.1.15,2013-04-24 22:20:00,
2013-04-24 15:29:00,80.8,23.4,29.69,NE,42,14.0,16.0,12,0.00,,,0.00,Wunderground v.1.15,2013-04-24 22:29:00,
2013-04-24 15:40:00,80.9,23.5,29.69,East,92,15.0,17.0,12,0.00,,,0.00,Wunderground v.1.15,2013-04-24 22:40:00,
2013-04-24 15:50:00,80.5,23.2,29.68,East,80,14.0,14.0,12,0.00,,,0.00,Wunderground v.1.15,2013-04-24 22:50:00,
2013-04-24 16:00:00,80.2,23.0,29.68,ENE,60,13.0,13.0,12,0.00,,,0.00,Wunderground v.1.15,2013-04-24 23:00:00,
2013-04-24 16:10:00,80.6,23.3,29.69,East,81,14.0,23.0,12,0.00,,,0.00,Wunderground v.1.15,2013-04-24 23:10:00,
2013-04-24 16:19:00,81.1,23.7,29.68,ENE,65,14.0,15.0,12,0.00,,,0.00,Wunderground v.1.15,2013-04-24 23:19:00,
2013-04-24 16:30:00,80.6,23.3,29.67,ENE,75,13.0,13.0,12,0.00,,,0.00,Wunderground v.1.15,2013-04-24 23:30:00,
2013-04-24 16:40:00,80.9,23.5,29.67,NE,53,12.0,12.0,12,0.00,,,0.00,Wunderground v.1.15,2013-04-24 23:40:00,
2013-04-24 16:49:00,81.2,23.7,29.67,ENE,71,13.0,13.0,12,0.00,,,0.00,Wunderground v.1.15,2013-04-24 23:49:00,
2013-04-24 17:00:00,81.3,23.8,29.67,NE,45,13.0,13.0,12,0.00,,,0.00,Wunderground v.1.15,2013-04-25 00:00:00,
2013-04-24 17:10:00,81.1,23.7,29.67,ENE,71,15.0,15.0,12,0.00,,,0.00,Wunderground v.1.15,2013-04-25 00:10:00,
2013-04-24 17:19:00,81.1,23.7,29.67,NE,40,14.0,14.0,12,0.00,,,0.00,Wunderground v.1.15,2013-04-25 00:19:00,
2013-04-24 17:30:00,81.0,23.6,29.66,ENE,57,15.0,15.0,12,0.00,,,0.00,Wunderground v.1.15,2013-04-25 00:30:00,
2013-04-24 17:40:00,81.1,23.7,29.66,NE,56,14.0,14.0,12,0.00,,,0.00,Wunderground v.1.15,2013-04-25 00:40:00,
2013-04-24 17:49:00,81.3,23.8,29.67,East,83,15.0,16.0,12,0.00,,,0.00,Wunderground v.1.15,2013-04-25 00:49:00,
2013-04-24 18:00:00,81.0,23.6,29.67,NE,56,12.0,14.0,12,0.00,,,0.00,Wunderground v.1.15,2013-04-25 01:00:00,
2013-04-24 18:10:00,80.9,23.5,29.66,ENE,61,16.0,16.0,12,0.00,,,0.00,Wunderground v.1.15,2013-04-25 01:10:00,
2013-04-24 18:19:00,80.8,23.4,29.67,NE,46,14.0,18.0,12,0.00,,,0.00,Wunderground v.1.15,2013-04-25 01:19:00,
2013-04-24 18:30:00,80.5,23.2,29.67,NE,34,14.0,16.0,12,0.00,,,0.00,Wunderground v.1.15,2013-04-25 01:30:00,
2013-04-24 18:40:00,80.0,22.8,29.66,ENE,67,13.0,13.0,12,0.00,,,0.00,Wunderground v.1.15,2013-04-25 01:40:00,
2013-04-24 18:49:00,79.6,24.4,29.66,NE,55,12.0,12.0,13,0.00,,,0.00,Wunderground v.1.15,2013-04-25 01:49:00,
2013-04-24 19:00:00,78.9,23.8,29.66,NE,42,13.0,14.0,13,0.00,,,0.00,Wunderground v.1.15,2013-04-25 02:00:00,
2013-04-24 19:09:00,78.5,23.5,29.67,NE,34,13.0,13.0,13,0.00,,,0.00,Wunderground v.1.15,2013-04-25 02:09:00,
2013-04-24 19:20:00,78.0,23.1,29.67,NE,48,12.0,12.0,13,0.00,,,0.00,Wunderground v.1.15,2013-04-25 02:20:00,
2013-04-24 19:30:00,77.1,24.2,29.67,NE,43,10.0,11.0,14,0.00,,,0.00,Wunderground v.1.15,2013-04-25 02:30:00,
2013-04-24 19:39:00,76.2,23.5,29.67,NE,52,9.0,9.0,14,0.00,,,0.00,Wunderground v.1.15,2013-04-25 02:39:00,
2013-04-24 19:50:00,75.4,22.8,29.67,ENE,63,7.0,10.0,14,0.00,,,0.00,Wunderground v.1.15,2013-04-25 02:50:00,
2013-04-24 20:00:00,75.0,22.5,29.67,ENE,70,7.0,10.0,14,0.00,,,0.00,Wunderground v.1.15,2013-04-25 03:00:00,
2013-04-24 20:09:00,74.7,22.3,29.68,ENE,71,6.0,10.0,14,0.00,,,0.00,Wunderground v.1.15,2013-04-25 03:09:00,
2013-04-24 20:20:00,74.8,24.0,29.68,ENE,71,8.0,10.0,15,0.00,,,0.00,Wunderground v.1.15,2013-04-25 03:20:00,
2013-04-24 20:30:00,75.2,22.7,29.69,ESE,107,8.0,10.0,14,0.00,,,0.00,Wunderground v.1.15,2013-04-25 03:30:00,
2013-04-24 20:39:00,76.2,26.7,29.70,ESE,109,8.0,12.0,16,0.00,,,0.00,Wunderground v.1.15,2013-04-25 03:39:00,
2013-04-24 20:50:00,77.9,31.0,29.70,East,100,12.0,15.0,18,0.00,,,0.00,Wunderground v.1.15,2013-04-25 03:50:00,
2013-04-24 21:00:00,77.9,31.0,29.69,WSW,248,4.0,4.0,18,0.00,,,0.00,Wunderground v.1.15,2013-04-25 04:00:00,
2013-04-24 21:10:00,77.6,30.7,29.69,ENE,66,2.0,10.0,18,0.00,,,0.00,Wunderground v.1.15,2013-04-25 04:10:00,
2013-04-24 21:20:00,77.4,24.4,29.69,ENE,58,5.0,5.0,14,0.00,,,0.00,Wunderground v.1.15,2013-04-25 04:20:00,
2013-04-24 21:30:00,76.8,20.3,29.70,ENE,69,6.0,10.0,12,0.00,,,0.00,Wunderground v.1.15,2013-04-25 04:30:00,
2013-04-24 21:40:00,73.6,34.6,29.71,SE,146,10.0,10.0,24,0.00,,,0.00,Wunderground v.1.15,2013-04-25 04:40:00,
2013-04-24 21:50:00,71.4,35.7,29.72,SSE,149,8.0,10.0,27,0.00,,,0.00,Wunderground v.1.15,2013-04-25 04:50:00,
2013-04-24 21:59:00,69.9,36.2,29.71,SSE,152,15.0,15.0,29,0.00,,,0.00,Wunderground v.1.15,2013-04-25 04:59:00,
2013-04-24 22:10:00,69.2,35.6,29.72,SE,136,13.0,13.0,29,0.00,,,0.00,Wunderground v.1.15,2013-04-25 05:10:00,
2013-04-24 22:19:00,68.5,35.8,29.72,SSE,157,12.0,12.0,30,0.00,,,0.00,Wunderground v.1.15,2013-04-25 05:19:00,
2013-04-24 22:30:00,67.7,36.0,29.72,SSE,161,8.0,14.0,31,0.00,,,0.00,Wunderground v.1.15,2013-04-25 05:30:00,
2013-04-24 22:40:00,66.9,36.1,29.74,WNW,283,6.0,6.0,32,0.00,,,0.00,Wunderground v.1.15,2013-04-25 05:40:00,
2013-04-24 22:49:00,66.7,36.7,29.73,West,277,3.0,3.0,33,0.00,,,0.00,Wunderground v.1.15,2013-04-25 05:49:00,
2013-04-24 23:00:00,66.3,35.5,29.73,SW,233,3.0,10.0,32,0.00,,,0.00,Wunderground v.1.15,2013-04-25 06:00:00,
2013-04-24 23:10:00,66.2,35.4,29.73,SSW,200,5.0,5.0,32,0.00,,,0.00,Wunderground v.1.15,2013-04-25 06:10:00,
2013-04-24 23:19:00,66.3,35.5,29.73,SSW,200,1.0,1.0,32,0.00,,,0.00,Wunderground v.1.15,2013-04-25 06:19:00,
2013-04-24 23:30:00,65.4,34.8,29.73,SSW,200,0.0,10.0,32,0.00,,,0.00,Wunderground v.1.15,2013-04-25 06:30:00,
2013-04-24 23:40:00,64.4,35.4,29.73,SSW,200,0.0,10.0,34,0.00,,,0.00,Wunderground v.1.15,2013-04-25 06:40:00,
2013-04-24 23:49:00,63.5,35.3,29.73,SSW,200,0.0,10.0,35,0.00,,,0.00,Wunderground v.1.15,2013-04-25 06:49:00,